Time;durP1;ratioP1;P1;durP2;ratioP2;P2;SDS_P1;SDS_P2;PMS_P1;PMS_P2;Temp;Humidity;BMP_temperature;BMP_pressure;BME280_temperature;BME280_humidity;BME280_pressure;Samples;Min_cycle;Max_cycle;Signal;HPM_P1;HPM_P2
2024/03/13 00:00:16;;;;;;;21.30;13.80;;;;;;;1.73;100.00;100915.80;108137;1253;60330;-63
2024/03/13 00:02:46;;;;;;;23.70;15.00;;;;;;;1.75;100.00;100910.46;108071;1253;73410;-63
2024/03/13 00:05:14;;;;;;;24.40;15.50;;;;;;;1.78;100.00;100907.32;108033;1253;71582;-61
2024/03/13 00:07:42;;;;;;;23.20;14.90;;;;;;;1.81;100.00;100910.22;108079;1253;71107;-64
2024/03/13 00:10:10;;;;;;;22.90;14.90;;;;;;;1.85;100.00;100914.35;108144;1254;60876;-64
2024/03/13 00:12:44;;;;;;;22.30;14.90;;;;;;;1.88;100.00;100915.70;108277;1253;60334;-63
2024/03/13 00:15:12;;;;;;;22.70;14.20;;;;;;;1.90;100.00;100917.17;108279;1253;72564;-63
2024/03/13 00:17:39;;;;;;;25.30;14.80;;;;;;;1.91;100.00;100915.69;108246;1253;72812;-64
2024/03/13 00:20:11;;;;;;;20.60;14.10;;;;;;;1.91;100.00;100909.01;108278;1253;71393;-64
2024/03/13 00:22:40;;;;;;;22.00;14.30;;;;;;;1.91;100.00;100908.71;108193;1253;60336;-64
2024/03/13 00:25:11;;;;;;;24.00;15.60;;;;;;;1.92;100.00;100910.67;108250;1253;60306;-65
2024/03/13 00:27:41;;;;;;;19.80;14.60;;;;;;;1.95;100.00;100906.80;108065;1253;73887;-64
2024/03/13 00:30:10;;;;;;;20.90;14.10;;;;;;;1.98;100.00;100904.11;108428;1253;71487;-64
2024/03/13 00:32:38;;;;;;;23.00;14.00;;;;;;;2.01;100.00;100902.64;108038;1254;72649;-64
2024/03/13 00:35:07;;;;;;;20.10;13.10;;;;;;;2.05;100.00;100906.92;108075;1253;60509;-65
2024/03/13 00:37:35;;;;;;;21.10;13.70;;;;;;;2.08;100.00;100907.27;108190;1253;60796;-63
2024/03/13 00:40:03;;;;;;;23.40;14.60;;;;;;;2.08;100.00;100906.50;108196;1253;72851;-64
2024/03/13 00:42:32;;;;;;;21.40;13.90;;;;;;;2.08;100.00;100905.48;108239;1255;72882;-63
2024/03/13 00:45:00;;;;;;;22.40;13.90;;;;;;;2.09;100.00;100905.36;108278;1253;72535;-66
2024/03/13 00:47:27;;;;;;;18.90;12.90;;;;;;;2.10;100.00;100906.70;108266;1254;60155;-65
2024/03/13 00:49:55;;;;;;;20.50;13.80;;;;;;;2.11;100.00;100907.30;108261;1253;61245;-64
2024/03/13 00:52:23;;;;;;;21.10;14.00;;;;;;;2.14;100.00;100912.69;108159;1253;72398;-63
2024/03/13 00:54:51;;;;;;;20.60;13.30;;;;;;;2.14;100.00;100918.98;108157;1253;72777;-63
2024/03/13 00:57:19;;;;;;;22.50;14.00;;;;;;;2.16;100.00;100924.06;108122;1256;71440;-63
2024/03/13 00:59:47;;;;;;;19.20;13.50;;;;;;;2.11;100.00;100926.02;108109;1253;60415;-64
2024/03/13 01:02:15;;;;;;;23.40;14.90;;;;;;;2.00;100.00;100921.64;108132;1253;60277;-64
2024/03/13 01:04:44;;;;;;;20.80;14.70;;;;;;;1.91;100.00;100919.41;108167;1253;72581;-64
2024/03/13 01:07:12;;;;;;;19.60;13.20;;;;;;;1.81;100.00;100918.89;108091;1253;70206;-63
2024/03/13 01:09:40;;;;;;;20.90;13.30;;;;;;;1.76;100.00;100911.04;108047;1257;71379;-64
2024/03/13 01:12:08;;;;;;;18.60;11.20;;;;;;;1.71;100.00;100905.05;108000;1253;60987;-63
2024/03/13 01:14:39;;;;;;;18.30;10.60;;;;;;;1.65;100.00;100900.85;108166;1253;60280;-64
2024/03/13 01:17:08;;;;;;;16.40;10.90;;;;;;;1.55;100.00;100898.41;108150;1253;72593;-64
2024/03/13 01:19:38;;;;;;;23.60;13.10;;;;;;;1.48;100.00;100893.48;108224;1253;73013;-64
2024/03/13 01:22:10;;;;;;;20.20;12.30;;;;;;;1.45;100.00;100891.77;108247;1253;71496;-64
2024/03/13 01:24:38;;;;;;;22.70;13.40;;;;;;;1.42;100.00;100890.13;108192;1253;60485;-64
2024/03/13 01:27:06;;;;;;;19.20;13.10;;;;;;;1.37;100.00;100885.13;108440;1253;60508;-64
2024/03/13 01:29:36;;;;;;;22.30;14.00;;;;;;;1.36;100.00;100883.30;108310;1253;72808;-64
2024/03/13 01:32:04;;;;;;;18.50;12.70;;;;;;;1.37;100.00;100878.77;108251;1253;71558;-63
2024/03/13 01:34:32;;;;;;;19.90;13.40;;;;;;;1.42;100.00;100883.36;108269;1253;71471;-63
2024/03/13 01:39:47;;;;;;;21.40;13.70;;;;;;;1.46;100.00;100889.67;108162;1253;59811;-63
2024/03/13 01:56:26;;;;;;;23.80;14.80;;;;;;;1.78;100.00;100886.86;108194;1256;73920;-63
2024/03/13 02:04:39;;;;;;;21.40;12.80;;;;;;;1.86;100.00;100887.09;108154;1252;60307;-64
2024/03/13 02:07:07;;;;;;;21.10;14.50;;;;;;;1.86;100.00;100885.80;107854;1252;60590;-65
2024/03/13 02:09:35;;;;;;;21.70;14.00;;;;;;;1.79;100.00;100884.67;108124;1253;72567;-64
2024/03/13 02:12:08;;;;;;;19.60;13.10;;;;;;;1.75;100.00;100883.94;108228;1253;72698;-64
2024/03/13 02:14:36;;;;;;;20.70;13.60;;;;;;;1.73;100.00;100885.93;108198;1253;71621;-63
2024/03/13 02:17:06;;;;;;;24.50;14.50;;;;;;;1.75;100.00;100890.98;108310;1256;59668;-63
2024/03/13 02:19:37;;;;;;;21.10;13.60;;;;;;;1.79;100.00;100893.63;108281;1253;59578;-64
2024/03/13 02:22:06;;;;;;;21.00;13.60;;;;;;;1.84;100.00;100889.34;108153;1253;72653;-65
2024/03/13 02:24:34;;;;;;;17.60;11.60;;;;;;;1.87;100.00;100894.75;108212;1252;71477;-64
2024/03/13 02:27:12;;;;;;;23.00;14.40;;;;;;;1.88;100.00;100885.19;108224;1253;72463;-63
2024/03/13 02:29:41;;;;;;;21.10;13.60;;;;;;;1.86;100.00;100882.54;108256;1254;59517;-63
2024/03/13 02:32:12;;;;;;;20.70;13.80;;;;;;;1.85;100.00;100879.75;108242;1252;60414;-64
2024/03/13 02:34:41;;;;;;;21.30;14.60;;;;;;;1.84;100.00;100879.25;108196;1253;72623;-64
2024/03/13 02:37:09;;;;;;;21.00;14.20;;;;;;;1.86;100.00;100876.25;108189;1253;72734;-63
2024/03/13 02:39:37;;;;;;;23.90;14.50;;;;;;;1.89;100.00;100882.20;108238;1253;72678;-63
2024/03/13 02:42:07;;;;;;;21.70;13.50;;;;;;;1.90;100.00;100881.35;108302;1252;60393;-64
2024/03/13 02:44:35;;;;;;;24.70;13.90;;;;;;;1.89;100.00;100879.73;108348;1252;60304;-63
2024/03/13 02:47:03;;;;;;;24.70;13.80;;;;;;;1.87;100.00;100884.53;108170;1252;72549;-64
2024/03/13 02:49:31;;;;;;;20.40;13.90;;;;;;;1.88;100.00;100889.13;108308;1253;72584;-64
2024/03/13 02:51:58;;;;;;;20.50;13.30;;;;;;;1.92;100.00;100887.13;108439;1253;71389;-62
2024/03/13 02:54:27;;;;;;;19.70;12.60;;;;;;;1.95;100.00;100886.19;108313;1253;60431;-63
2024/03/13 02:56:57;;;;;;;19.60;12.70;;;;;;;1.96;100.00;100889.86;108275;1252;60357;-66
2024/03/13 02:59:25;;;;;;;24.10;14.40;;;;;;;1.95;100.00;100889.25;108238;1253;74341;-64
2024/03/13 03:01:53;;;;;;;24.10;14.30;;;;;;;1.95;100.00;100885.81;108217;1253;71447;-64
2024/03/13 03:04:21;;;;;;;25.10;14.40;;;;;;;1.97;100.00;100883.80;108261;1253;71419;-63
2024/03/13 03:06:49;;;;;;;18.90;13.30;;;;;;;1.97;100.00;100882.58;108223;1253;60303;-63
2024/03/13 03:09:16;;;;;;;23.00;15.30;;;;;;;1.95;100.00;100889.42;108296;1253;60424;-63
2024/03/13 03:11:44;;;;;;;21.30;14.60;;;;;;;1.89;100.00;100886.94;108295;1253;72561;-64
2024/03/13 03:14:12;;;;;;;24.30;14.70;;;;;;;1.82;100.00;100889.56;108219;1252;73068;-64
2024/03/13 03:16:40;;;;;;;22.30;15.00;;;;;;;1.75;100.00;100889.36;108225;1256;71445;-63
2024/03/13 03:19:09;;;;;;;20.90;14.10;;;;;;;1.71;100.00;100895.92;108299;1253;59743;-65
2024/03/13 03:21:37;;;;;;;25.60;14.30;;;;;;;1.67;100.00;100903.10;108148;1253;59019;-66
2024/03/13 03:24:05;;;;;;;23.90;14.80;;;;;;;1.63;100.00;100904.92;108295;1253;71533;-66
2024/03/13 03:26:33;;;;;;;21.60;15.00;;;;;;;1.58;100.00;100906.91;108255;1253;71776;-65
2024/03/13 03:29:01;;;;;;;22.50;14.90;;;;;;;1.54;100.00;100905.98;108289;1253;72662;-63
2024/03/13 03:31:29;;;;;;;21.10;13.90;;;;;;;1.51;100.00;100906.23;108235;1253;60312;-63
2024/03/13 03:33:57;;;;;;;24.20;15.40;;;;;;;1.46;100.00;100904.24;108285;1252;60274;-63
2024/03/13 03:36:25;;;;;;;22.00;14.60;;;;;;;1.43;100.00;100904.02;108254;1253;73837;-64
2024/03/13 03:38:53;;;;;;;23.30;15.20;;;;;;;1.42;100.00;100905.42;108113;1257;71458;-65
2024/03/13 03:41:20;;;;;;;23.40;14.90;;;;;;;1.39;100.00;100903.70;108270;1253;71551;-63
2024/03/13 03:43:48;;;;;;;25.10;15.80;;;;;;;1.35;100.00;100902.86;108275;1252;60299;-63
2024/03/13 03:46:17;;;;;;;22.70;14.20;;;;;;;1.34;100.00;100902.91;108230;1253;60177;-64
2024/03/13 03:48:46;;;;;;;23.10;14.90;;;;;;;1.32;100.00;100897.55;108038;1252;72544;-64
2024/03/13 03:51:16;;;;;;;24.10;15.90;;;;;;;1.29;100.00;100898.91;108195;1253;71500;-63
2024/03/13 03:53:45;;;;;;;26.60;16.80;;;;;;;1.28;100.00;100895.86;108174;1253;71066;-63
2024/03/13 03:56:13;;;;;;;24.80;15.60;;;;;;;1.28;100.00;100891.32;108174;1252;60921;-63
2024/03/13 03:58:42;;;;;;;23.80;15.70;;;;;;;1.26;100.00;100890.38;108270;1251;60208;-63
2024/03/13 04:01:11;;;;;;;26.80;16.90;;;;;;;1.21;100.00;100891.48;108264;1252;72808;-63
2024/03/13 04:03:41;;;;;;;23.40;16.30;;;;;;;1.17;100.00;100890.08;108220;1252;73347;-63
2024/03/13 04:06:08;;;;;;;25.00;16.40;;;;;;;1.14;100.00;100890.49;108254;1253;71455;-63
2024/03/13 04:08:36;;;;;;;25.40;16.60;;;;;;;1.12;100.00;100888.30;108211;1252;60940;-63
2024/03/13 04:11:04;;;;;;;24.90;16.40;;;;;;;1.12;100.00;100886.03;108283;1253;61141;-63
2024/03/13 04:13:32;;;;;;;24.50;17.30;;;;;;;1.10;100.00;100885.99;108141;1253;72533;-64
2024/03/13 04:16:04;;;;;;;28.60;18.70;;;;;;;1.05;100.00;100883.88;108223;1253;71573;-64
2024/03/13 04:18:33;;;;;;;30.10;18.30;;;;;;;1.03;100.00;100881.80;108339;1251;73629;-63
2024/03/13 04:21:01;;;;;;;26.20;17.90;;;;;;;1.00;100.00;100880.25;108240;1253;60190;-63
2024/03/13 04:23:30;;;;;;;28.80;18.00;;;;;;;0.98;100.00;100886.11;108298;1253;60174;-63
2024/03/13 04:26:03;;;;;;;28.30;17.70;;;;;;;0.98;100.00;100882.91;108302;1253;73936;-64
2024/03/13 04:28:31;;;;;;;28.00;19.40;;;;;;;0.97;100.00;100893.71;108204;1252;72522;-63
2024/03/13 04:31:01;;;;;;;29.00;18.40;;;;;;;0.97;100.00;100889.54;108206;1253;72714;-64
2024/03/13 04:33:29;;;;;;;31.20;19.80;;;;;;;0.97;100.00;100887.80;108292;1253;60461;-64
2024/03/13 04:35:57;;;;;;;30.10;19.50;;;;;;;0.97;100.00;100890.88;108209;1252;60281;-64
2024/03/13 04:38:25;;;;;;;28.40;19.30;;;;;;;0.99;100.00;100890.85;108367;1253;72681;-64
2024/03/13 04:40:52;;;;;;;29.10;19.80;;;;;;;0.96;100.00;100889.13;108342;1253;71660;-64
2024/03/13 04:43:20;;;;;;;30.10;19.70;;;;;;;0.94;100.00;100887.60;108289;1253;72648;-64
2024/03/13 04:45:48;;;;;;;29.10;19.90;;;;;;;0.93;100.00;100887.35;108244;1252;60979;-64
2024/03/13 04:48:16;;;;;;;32.10;20.90;;;;;;;0.93;100.00;100889.55;108290;1253;59110;-64
2024/03/13 04:50:44;;;;;;;30.10;20.30;;;;;;;0.95;100.00;100889.92;108448;1252;72562;-64
2024/03/13 04:53:11;;;;;;;30.20;20.30;;;;;;;0.96;100.00;100885.41;108248;1253;72996;-65
2024/03/13 04:55:39;;;;;;;30.10;19.70;;;;;;;0.96;100.00;100881.55;108465;1253;71343;-64
2024/03/13 04:58:07;;;;;;;31.50;19.90;;;;;;;0.97;100.00;100883.88;108182;1253;63050;-64
2024/03/13 05:00:34;;;;;;;29.60;19.90;;;;;;;0.99;100.00;100883.46;108189;1253;62250;-63
2024/03/13 05:03:04;;;;;;;30.00;20.40;;;;;;;1.00;100.00;100880.43;108284;1253;72725;-64
2024/03/13 05:05:34;;;;;;;30.30;19.60;;;;;;;1.01;100.00;100884.45;108290;1253;71472;-64
2024/03/13 05:08:02;;;;;;;30.30;21.00;;;;;;;1.00;100.00;100882.78;108241;1253;72750;-64
2024/03/13 05:10:29;;;;;;;26.30;19.30;;;;;;;1.00;100.00;100886.14;108193;1254;59705;-63
2024/03/13 05:12:57;;;;;;;28.90;20.20;;;;;;;1.02;100.00;100880.33;108290;1253;60264;-62
2024/03/13 05:15:26;;;;;;;27.50;19.00;;;;;;;1.04;100.00;100878.65;108300;1252;72562;-63
2024/03/13 05:17:55;;;;;;;28.50;20.00;;;;;;;1.07;100.00;100880.19;108250;1253;72512;-65
2024/03/13 05:20:24;;;;;;;28.30;19.90;;;;;;;1.12;100.00;100879.79;108278;1254;71209;-63
2024/03/13 05:22:52;;;;;;;32.30;20.30;;;;;;;1.14;100.00;100884.05;108041;1253;60302;-64
2024/03/13 05:25:22;;;;;;;29.10;19.00;;;;;;;1.16;100.00;100884.92;108161;1253;60475;-64
2024/03/13 05:27:50;;;;;;;28.00;20.10;;;;;;;1.17;100.00;100892.10;108242;1253;73677;-63
2024/03/13 05:30:18;;;;;;;27.30;19.30;;;;;;;1.17;100.00;100889.27;108207;1253;72911;-64
2024/03/13 05:32:45;;;;;;;29.60;20.30;;;;;;;1.20;100.00;100890.39;108194;1252;71169;-64
2024/03/13 05:35:14;;;;;;;30.10;21.10;;;;;;;1.24;100.00;100892.57;108488;1253;61106;-64
2024/03/13 05:37:42;;;;;;;29.00;20.30;;;;;;;1.25;100.00;100889.23;108240;1253;60329;-65
2024/03/13 05:40:16;;;;;;;28.60;21.10;;;;;;;1.27;100.00;100894.14;108181;1253;72654;-64
2024/03/13 05:42:46;;;;;;;32.50;21.10;;;;;;;1.26;100.00;100896.29;107858;1253;569351;-64
2024/03/13 05:45:14;;;;;;;28.30;20.50;;;;;;;1.29;100.00;100897.52;108309;1252;72712;-64
2024/03/13 05:47:42;;;;;;;30.10;19.60;;;;;;;1.32;100.00;100896.55;108122;1253;60432;-64
2024/03/13 05:50:11;;;;;;;29.00;19.80;;;;;;;1.38;100.00;100897.66;108169;1253;59291;-64
2024/03/13 05:52:38;;;;;;;29.60;20.60;;;;;;;1.42;100.00;100896.84;108166;1253;73241;-63
2024/03/13 05:55:06;;;;;;;33.10;20.70;;;;;;;1.44;100.00;100901.48;108045;1253;74798;-63
2024/03/13 05:57:34;;;;;;;29.00;19.90;;;;;;;1.49;100.00;100901.88;108248;1253;72450;-63
2024/03/13 06:00:07;;;;;;;29.40;19.90;;;;;;;1.52;100.00;100900.42;108269;1253;61022;-64
2024/03/13 06:02:41;;;;;;;26.60;18.90;;;;;;;1.53;100.00;100902.49;108228;1252;60356;-65
2024/03/13 06:05:14;;;;;;;31.30;19.50;;;;;;;1.55;100.00;100906.48;108265;1253;72551;-66
2024/03/13 06:07:42;;;;;;;27.40;19.00;;;;;;;1.58;100.00;100905.17;108285;1252;71750;-64
2024/03/13 06:10:10;;;;;;;29.80;18.50;;;;;;;1.63;100.00;100906.95;108136;1253;72570;-64
2024/03/13 06:12:38;;;;;;;25.30;17.30;;;;;;;1.67;100.00;100907.52;108219;1252;60290;-64
2024/03/13 06:15:07;;;;;;;28.00;17.30;;;;;;;1.69;100.00;100906.60;108324;1252;60289;-64
2024/03/13 06:17:35;;;;;;;23.10;16.30;;;;;;;1.72;100.00;100906.59;108167;1253;73934;-63
2024/03/13 06:20:12;;;;;;;27.00;16.90;;;;;;;1.75;100.00;100909.98;108170;1253;72806;-64
2024/03/13 06:22:41;;;;;;;26.20;18.40;;;;;;;1.77;100.00;100906.17;108175;1253;71426;-64
2024/03/13 06:25:09;;;;;;;26.80;17.80;;;;;;;1.77;100.00;100902.73;108258;1254;59707;-64
2024/03/13 06:27:37;;;;;;;23.40;16.20;;;;;;;1.73;100.00;100908.98;108224;1252;60527;-64
2024/03/13 06:30:05;;;;;;;25.70;16.70;;;;;;;1.73;100.00;100906.19;108182;1253;73802;-63
2024/03/13 06:32:33;;;;;;;26.20;17.80;;;;;;;1.73;100.00;100911.54;108156;1253;72527;-64
2024/03/13 06:35:03;;;;;;;27.50;17.30;;;;;;;1.76;100.00;100909.01;108239;1253;71555;-64
2024/03/13 06:37:33;;;;;;;24.60;17.20;;;;;;;1.77;100.00;100908.86;108129;1252;61006;-64
2024/03/13 06:40:01;;;;;;;24.60;16.40;;;;;;;1.77;100.00;100904.72;108336;1252;60165;-64
2024/03/13 06:42:29;;;;;;;25.20;17.10;;;;;;;1.80;100.00;100899.23;108260;1253;75901;-65
2024/03/13 06:44:57;;;;;;;27.80;18.00;;;;;;;1.86;100.00;100898.15;108218;1253;72077;-64
2024/03/13 06:47:25;;;;;;;25.40;17.70;;;;;;;1.93;100.00;100898.23;108227;1253;73293;-63
2024/03/13 06:49:53;;;;;;;26.90;16.30;;;;;;;2.00;100.00;100893.42;108122;1253;62931;-64
2024/03/13 06:55:39;;;;;;;27.70;17.00;;;;;;;2.17;100.00;100889.44;108160;1253;76224;-64
2024/03/13 06:58:06;;;;;;;26.20;16.90;;;;;;;2.21;100.00;100887.65;108073;1256;74914;-64
2024/03/13 07:00:34;;;;;;;23.50;16.60;;;;;;;2.29;100.00;100894.58;108158;1256;74872;-64
2024/03/13 07:03:03;;;;;;;22.80;16.30;;;;;;;2.41;100.00;100894.86;108170;1254;60619;-64
2024/03/13 07:05:32;;;;;;;26.10;17.00;;;;;;;2.49;100.00;100885.00;108226;1252;62071;-64
2024/03/13 07:08:00;;;;;;;26.00;17.00;;;;;;;2.56;100.00;100880.52;108068;1253;72834;-63
2024/03/13 07:10:28;;;;;;;26.20;18.10;;;;;;;2.64;100.00;100884.90;108183;1253;75106;-64
2024/03/13 07:12:56;;;;;;;22.60;16.00;;;;;;;2.71;100.00;100881.85;108173;1254;73031;-64
2024/03/13 07:15:24;;;;;;;25.10;15.90;;;;;;;2.80;100.00;100880.02;108222;1256;62146;-64
2024/03/13 07:17:52;;;;;;;21.30;15.90;;;;;;;2.89;100.00;100876.59;108202;1252;62308;-64
2024/03/13 07:20:20;;;;;;;23.80;15.10;;;;;;;2.93;100.00;100885.30;108270;1252;75088;-65
2024/03/13 07:22:48;;;;;;;24.90;16.30;;;;;;;3.03;100.00;100876.12;108195;1252;72943;-66
2024/03/13 07:25:17;;;;;;;24.70;16.00;;;;;;;3.08;100.00;100872.88;108114;1252;74983;-64
2024/03/13 07:27:46;;;;;;;21.30;15.20;;;;;;;3.13;100.00;100874.10;108200;1253;60946;-65
2024/03/13 07:30:14;;;;;;;22.20;15.20;;;;;;;3.21;100.00;100881.02;108093;1252;60362;-64
2024/03/13 07:32:42;;;;;;;23.80;15.10;;;;;;;3.27;100.00;100881.52;108113;1253;74663;-65
2024/03/13 07:35:14;;;;;;;23.60;15.30;;;;;;;3.35;100.00;100879.38;108309;1253;75043;-65
2024/03/13 07:37:41;;;;;;;21.60;15.00;;;;;;;3.41;100.00;100886.13;108090;1253;74826;-65
2024/03/13 07:40:10;;;;;;;22.20;14.90;;;;;;;3.45;100.00;100879.91;108057;1253;63111;-64
2024/03/13 07:42:41;;;;;;;22.50;14.60;;;;;;;3.45;100.00;100882.42;108244;1253;60223;-65
2024/03/13 07:45:14;;;;;;;21.70;15.30;;;;;;;3.46;100.00;100883.61;108234;1254;73269;-64
2024/03/13 07:47:43;;;;;;;20.30;14.80;;;;;;;3.46;100.00;100882.43;108186;1253;73133;-64
2024/03/13 07:50:11;;;;;;;24.40;15.80;;;;;;;3.44;100.00;100885.84;108116;1252;73069;-64
2024/03/13 07:52:39;;;;;;;22.90;14.30;;;;;;;3.46;100.00;100888.57;108303;1254;60367;-65
2024/03/13 07:55:09;;;;;;;19.80;13.70;;;;;;;3.55;100.00;100891.66;108285;1252;62399;-66
2024/03/13 07:57:37;;;;;;;20.00;13.90;;;;;;;3.66;100.00;100890.53;108235;1253;76012;-65
2024/03/13 08:00:06;;;;;;;18.20;13.00;;;;;;;3.83;100.00;100889.72;108303;1252;73149;-67
2024/03/13 08:02:39;;;;;;;19.30;13.20;;;;;;;3.96;100.00;100892.52;108210;1253;74854;-67
2024/03/13 08:05:06;;;;;;;20.30;13.50;;;;;;;4.00;100.00;100898.33;108249;1252;61491;-64
2024/03/13 08:07:37;;;;;;;17.00;13.10;;;;;;;3.99;100.00;100895.60;108290;1253;62361;-65
2024/03/13 08:10:25;;;;;;;19.00;13.20;;;;;;;3.94;100.00;100902.23;108220;1252;74860;-65
2024/03/13 08:13:10;;;;;;;18.10;12.90;;;;;;;3.86;100.00;100913.43;108210;1253;72804;-66
2024/03/13 08:15:56;;;;;;;18.70;12.40;;;;;;;3.77;100.00;100908.63;108252;1253;73179;-64
2024/03/13 08:18:41;;;;;;;19.30;12.60;;;;;;;3.66;100.00;100904.42;108205;1253;61446;-65
2024/03/13 08:21:26;;;;;;;17.90;12.20;;;;;;;3.52;100.00;100905.02;108232;1253;62292;-65
2024/03/13 08:24:11;;;;;;;18.30;13.10;;;;;;;3.42;100.00;100900.27;108033;1254;73294;-65
2024/03/13 08:26:56;;;;;;;18.80;12.50;;;;;;;3.38;100.00;100894.29;108141;1258;73157;-65
2024/03/13 08:29:41;;;;;;;19.40;12.90;;;;;;;3.36;100.00;100893.69;108122;1252;73096;-66
2024/03/13 08:32:27;;;;;;;20.20;13.00;;;;;;;3.38;100.00;100888.64;108281;1251;60498;-65
2024/03/13 08:35:13;;;;;;;19.30;13.00;;;;;;;3.41;100.00;100888.09;108296;1252;62165;-65
2024/03/13 08:37:59;;;;;;;18.60;13.20;;;;;;;3.42;100.00;100891.94;108264;1253;72713;-65
2024/03/13 08:40:44;;;;;;;19.40;12.30;;;;;;;3.47;100.00;100895.44;108208;1253;75097;-63
2024/03/13 08:43:29;;;;;;;17.30;12.20;;;;;;;3.55;99.14;100901.70;108172;1257;75608;-65
2024/03/13 08:46:16;;;;;;;20.10;12.70;;;;;;;3.59;97.97;100898.34;108228;1253;60274;-66
2024/03/13 08:49:05;;;;;;;18.10;12.70;;;;;;;3.63;96.88;100894.73;108165;1252;62294;-65
2024/03/13 08:52:00;;;;;;;18.70;12.60;;;;;;;3.66;96.05;100895.73;108242;1252;72926;-64
2024/03/13 08:54:52;;;;;;;18.60;12.10;;;;;;;3.71;95.56;100903.76;108259;1253;73942;-66
2024/03/13 08:57:37;;;;;;;17.20;12.50;;;;;;;3.79;95.24;100910.02;108203;1253;72575;-64
2024/03/13 09:00:22;;;;;;;18.90;12.60;;;;;;;3.83;94.20;100904.69;108196;1253;61420;-64
2024/03/13 09:03:08;;;;;;;18.40;12.50;;;;;;;3.82;92.21;100891.09;108183;1253;60150;-63
2024/03/13 09:05:53;;;;;;;18.80;12.20;;;;;;;3.80;91.72;100903.87;108272;1252;74067;-64
2024/03/13 09:08:24;;;;;;;17.20;11.70;;;;;;;3.78;91.55;100904.23;108210;1253;73150;-64
2024/03/13 09:11:12;;;;;;;17.70;11.60;;;;;;;3.77;91.20;100903.54;108187;1256;74002;-63
2024/03/13 09:13:41;;;;;;;18.00;12.10;;;;;;;3.74;91.30;100898.21;108106;1253;63113;-65
2024/03/13 09:16:13;;;;;;;14.60;11.20;;;;;;;3.74;91.46;100901.40;108201;1253;60019;-63
2024/03/13 09:18:41;;;;;;;17.80;12.20;;;;;;;3.77;91.38;100904.48;108324;1253;72757;-63
2024/03/13 09:21:12;;;;;;;18.10;12.00;;;;;;;3.81;91.39;100909.16;108221;1253;75111;-63
2024/03/13 09:23:40;;;;;;;17.40;11.50;;;;;;;3.90;91.08;100907.02;108271;1252;74912;-65
2024/03/13 09:26:10;;;;;;;18.50;11.40;;;;;;;4.02;90.14;100903.36;108202;1252;62007;-64
2024/03/13 09:28:38;;;;;;;17.60;10.90;;;;;;;4.18;89.50;100898.02;108220;1253;60946;-64
2024/03/13 09:31:07;;;;;;;16.40;11.70;;;;;;;4.38;88.36;100899.68;108170;1253;75152;-64
2024/03/13 09:33:35;;;;;;;18.60;12.00;;;;;;;4.57;86.49;100899.66;108049;1253;75095;-64
2024/03/13 09:36:07;;;;;;;18.30;11.50;;;;;;;4.77;85.77;100900.23;108223;1253;74968;-64
2024/03/13 09:38:34;;;;;;;16.50;10.80;;;;;;;5.01;84.71;100897.25;108194;1253;60288;-64
2024/03/13 09:41:05;;;;;;;15.00;11.00;;;;;;;5.18;82.82;100898.42;108354;1253;62228;-63
2024/03/13 09:43:33;;;;;;;16.80;10.50;;;;;;;5.24;79.56;100891.02;108118;1252;75983;-64
2024/03/13 09:46:01;;;;;;;18.40;10.40;;;;;;;5.21;76.92;100892.30;108462;1252;74477;-64
2024/03/13 09:48:29;;;;;;;16.80;10.90;;;;;;;5.14;76.84;100896.56;108141;1253;73099;-64
2024/03/13 09:50:57;;;;;;;17.50;11.20;;;;;;;5.03;75.96;100893.09;108046;1253;60150;-64
2024/03/13 09:53:28;;;;;;;14.00;9.90;;;;;;;4.90;75.46;100890.58;108238;1252;60455;-65
2024/03/13 09:55:56;;;;;;;14.70;10.10;;;;;;;4.81;76.09;100894.20;108308;1253;76130;-62
2024/03/13 09:58:25;;;;;;;13.90;10.00;;;;;;;4.72;76.14;100893.42;108265;1253;73300;-64
2024/03/13 10:00:56;;;;;;;14.20;10.70;;;;;;;4.61;76.52;100890.02;108280;1254;75018;-63
2024/03/13 10:03:25;;;;;;;14.50;9.80;;;;;;;4.50;77.25;100894.65;108250;1254;62126;-62
2024/03/13 10:05:59;;;;;;;14.80;9.50;;;;;;;4.45;78.02;100895.92;108342;1252;60984;-64
2024/03/13 10:08:27;;;;;;;14.10;9.50;;;;;;;4.45;78.53;100896.34;108252;1253;75020;-63
2024/03/13 10:10:56;;;;;;;15.80;10.00;;;;;;;4.48;78.98;100892.88;108248;1253;75050;-64
2024/03/13 10:13:23;;;;;;;15.80;10.20;;;;;;;4.50;79.82;100892.89;108080;1252;74879;-62
2024/03/13 10:15:51;;;;;;;15.50;9.70;;;;;;;4.53;79.21;100890.20;108159;1252;60460;-63
2024/03/13 10:18:19;;;;;;;15.00;9.90;;;;;;;4.55;77.99;100891.16;108274;1252;62646;-63
2024/03/13 10:20:54;;;;;;;13.80;9.50;;;;;;;4.56;76.53;100897.63;108079;1252;74945;-63
2024/03/13 10:23:22;;;;;;;14.60;9.70;;;;;;;4.56;75.93;100899.80;108335;1253;74851;-64
2024/03/13 10:25:50;;;;;;;13.70;9.20;;;;;;;4.51;74.87;100894.68;108289;1253;73455;-63
2024/03/13 10:28:23;;;;;;;14.10;8.40;;;;;;;4.49;74.90;100891.44;108125;1254;61520;-62
2024/03/13 10:30:52;;;;;;;14.90;9.30;;;;;;;4.52;74.74;100890.32;108281;1253;60894;-63
2024/03/13 10:33:20;;;;;;;13.80;8.80;;;;;;;4.53;74.75;100893.00;108312;1253;73873;-63
2024/03/13 10:35:48;;;;;;;14.70;9.50;;;;;;;4.57;75.59;100890.56;108364;1252;75071;-63
2024/03/13 10:38:16;;;;;;;15.70;9.30;;;;;;;4.55;75.03;100887.59;108283;1253;74743;-64
2024/03/13 10:40:46;;;;;;;13.70;8.40;;;;;;;4.51;74.92;100889.35;108323;1254;61614;-63
2024/03/13 10:43:13;;;;;;;14.00;9.50;;;;;;;4.49;75.20;100886.40;108254;1256;61334;-63
2024/03/13 10:45:50;;;;;;;15.50;9.30;;;;;;;4.49;75.41;100885.83;108304;1253;74322;-63
2024/03/13 10:48:17;;;;;;;14.20;8.80;;;;;;;4.47;76.16;100886.02;108081;1253;74986;-62
2024/03/13 10:50:48;;;;;;;15.20;9.20;;;;;;;4.46;76.50;100885.42;108150;1256;73133;-63
2024/03/13 10:53:19;;;;;;;13.40;8.90;;;;;;;4.42;76.43;100885.23;108029;1253;60909;-64
2024/03/13 10:55:47;;;;;;;13.40;8.80;;;;;;;4.39;76.66;100877.38;107995;1252;62194;-63
2024/03/13 10:58:22;;;;;;;12.60;8.40;;;;;;;4.38;76.93;100875.31;108272;1253;76158;-63
2024/03/13 11:00:50;;;;;;;15.70;9.10;;;;;;;4.39;77.69;100873.40;108219;1252;75177;-62
2024/03/13 11:03:19;;;;;;;11.90;8.50;;;;;;;4.40;77.96;100878.59;108170;1253;73344;-63
2024/03/13 11:05:49;;;;;;;14.10;9.20;;;;;;;4.41;77.74;100874.30;108233;1253;60884;-64
2024/03/13 11:08:17;;;;;;;13.20;9.10;;;;;;;4.39;77.33;100870.51;108101;1253;61130;-63
2024/03/13 11:10:46;;;;;;;15.40;8.90;;;;;;;4.42;77.55;100866.27;108323;1252;75325;-63
2024/03/13 11:13:33;;;;;;;12.80;8.40;;;;;;;4.51;77.53;100866.32;108057;1253;75025;-63
2024/03/13 11:16:01;;;;;;;13.80;8.80;;;;;;;4.55;77.74;100863.77;108288;1253;75080;-64
2024/03/13 11:18:29;;;;;;;12.00;8.10;;;;;;;4.60;78.11;100865.11;108222;1252;61555;-64
2024/03/13 11:21:02;;;;;;;13.90;9.60;;;;;;;4.67;78.15;100862.84;108041;1253;62486;-65
2024/03/13 11:23:34;;;;;;;15.50;9.80;;;;;;;4.76;77.41;100865.56;108134;1253;74510;-66
2024/03/13 11:26:04;;;;;;;15.60;9.60;;;;;;;4.79;76.27;100860.13;108143;1253;73256;-65
2024/03/13 11:28:31;;;;;;;14.70;8.70;;;;;;;4.82;76.27;100858.36;108242;1252;71856;-64
2024/03/13 11:30:59;;;;;;;12.70;8.70;;;;;;;4.85;75.55;100856.98;108067;1254;61515;-65
2024/03/13 11:33:28;;;;;;;15.10;8.80;;;;;;;4.90;74.84;100853.20;108049;1253;60442;-65
2024/03/13 11:35:58;;;;;;;15.20;9.70;;;;;;;4.93;74.57;100846.38;108172;1252;74326;-65
2024/03/13 11:38:26;;;;;;;12.30;8.60;;;;;;;4.97;74.52;100843.95;108130;1253;73825;-64
2024/03/13 11:40:54;;;;;;;12.00;8.70;;;;;;;5.02;74.56;100840.10;108104;1258;71711;-66
2024/03/13 11:43:22;;;;;;;13.50;9.00;;;;;;;5.05;74.04;100835.08;107988;1253;61506;-65